Time;durP1;ratioP1;P1;durP2;ratioP2;P2;SDS_P1;SDS_P2;PMS_P1;PMS_P2;Temp;Humidity;BMP_temperature;BMP_pressure;BME280_temperature;BME280_humidity;BME280_pressure;Samples;Min_cycle;Max_cycle;Signal;HPM_P1;HPM_P2
2023/12/23 00:00:15;;;;;;;0.75;0.65;;;;;;;4.80;83.86;99172.69;4944724;28;20027;-69
2023/12/23 00:02:40;;;;;;;0.40;0.40;;;;;;;4.81;83.10;99180.34;4937591;28;20131;-68
2023/12/23 00:05:06;;;;;;;0.30;0.30;;;;;;;5.03;82.96;99178.84;4946964;28;20042;-71
2023/12/23 00:07:32;;;;;;;0.20;0.20;;;;;;;4.79;83.88;99190.59;4941236;28;20031;-68
2023/12/23 00:09:57;;;;;;;2.05;0.40;;;;;;;4.66;84.52;99191.09;4944534;29;20081;-69
2023/12/23 00:12:23;;;;;;;0.35;0.32;;;;;;;4.76;83.84;99201.19;4943004;28;20165;-68
2023/12/23 00:14:48;;;;;;;0.30;0.30;;;;;;;4.89;83.49;99195.34;4935272;29;20078;-68
2023/12/23 00:17:13;;;;;;;0.57;0.30;;;;;;;4.62;84.27;99212.34;4943690;29;20043;-68
2023/12/23 00:19:39;;;;;;;0.52;0.52;;;;;;;4.72;84.22;99206.47;4941671;28;20074;-69
2023/12/23 00:22:04;;;;;;;5.88;1.20;;;;;;;4.76;83.73;99215.31;4941671;28;20525;-69
2023/12/23 00:24:31;;;;;;;0.30;0.30;;;;;;;4.38;85.07;99197.38;4941707;29;20031;-70
2023/12/23 00:26:57;;;;;;;0.30;0.30;;;;;;;4.44;84.75;99208.53;4943962;28;20137;-69
2023/12/23 00:29:26;;;;;;;0.85;0.57;;;;;;;4.80;82.88;99218.03;4926603;29;20154;-69
2023/12/23 00:31:52;;;;;;;4.43;0.47;;;;;;;4.78;82.46;99210.34;4957339;28;20133;-70
2023/12/23 00:34:17;;;;;;;0.43;0.30;;;;;;;4.73;82.85;99223.19;4942336;29;20051;-69
2023/12/23 00:36:43;;;;;;;0.20;0.20;;;;;;;4.72;81.64;99233.13;4943265;29;20051;-69
2023/12/23 00:39:09;;;;;;;0.30;0.30;;;;;;;4.83;81.53;99234.09;4941588;28;20201;-69
2023/12/23 00:41:35;;;;;;;11.80;0.30;;;;;;;4.98;79.72;99241.25;4966745;28;20039;-70
2023/12/23 00:44:01;;;;;;;6.25;0.85;;;;;;;4.84;80.09;99240.94;4946446;29;20529;-70
2023/12/23 00:46:28;;;;;;;0.50;0.50;;;;;;;4.82;80.81;99245.88;4932200;29;20035;-69
2023/12/23 00:48:54;;;;;;;0.40;0.40;;;;;;;4.87;80.07;99244.81;4948700;29;20575;-69
2023/12/23 00:51:20;;;;;;;4.82;0.65;;;;;;;5.04;79.36;99244.38;4948731;29;20510;-69
2023/12/23 00:53:45;;;;;;;2.90;0.73;;;;;;;5.02;78.76;99246.63;4941780;29;20035;-69
2023/12/23 00:56:11;;;;;;;0.30;0.30;;;;;;;5.02;78.96;99252.75;4951777;29;20027;-70
2023/12/23 00:58:36;;;;;;;0.28;0.28;;;;;;;5.06;78.34;99263.47;4942323;28;20039;-70
2023/12/23 01:01:04;;;;;;;0.20;0.20;;;;;;;4.96;79.17;99258.72;4948511;28;20125;-69
2023/12/23 01:03:29;;;;;;;1.40;0.43;;;;;;;4.87;78.79;99264.25;4956530;28;20395;-69
2023/12/23 01:05:55;;;;;;;3.70;0.28;;;;;;;4.78;79.43;99265.59;4963082;28;20030;-69
2023/12/23 01:08:20;;;;;;;0.30;0.30;;;;;;;4.94;78.80;99276.94;4950223;28;21513;-69
2023/12/23 01:10:46;;;;;;;4.45;0.57;;;;;;;4.92;78.74;99271.19;4939066;29;20027;-70
2023/12/23 01:13:11;;;;;;;1.27;0.50;;;;;;;4.96;78.48;99275.50;4948681;28;20050;-69
2023/12/23 01:15:37;;;;;;;2.70;0.82;;;;;;;4.62;79.44;99272.88;4950295;28;20051;-70
2023/12/23 01:18:02;;;;;;;0.88;0.28;;;;;;;4.57;79.47;99268.56;4927786;29;20176;-70
2023/12/23 01:20:28;;;;;;;0.22;0.22;;;;;;;4.64;79.39;99266.06;4943409;29;20050;-69
2023/12/23 01:22:54;;;;;;;0.30;0.30;;;;;;;4.64;79.65;99268.75;4937464;28;20410;-70
2023/12/23 01:25:22;;;;;;;0.30;0.30;;;;;;;4.72;79.13;99270.44;4943426;29;20039;-70
2023/12/23 01:27:47;;;;;;;0.85;0.77;;;;;;;4.67;79.76;99270.69;4944328;29;20070;-70
2023/12/23 01:30:13;;;;;;;0.38;0.38;;;;;;;4.67;80.13;99275.25;4954454;28;20510;-69
2023/12/23 01:32:38;;;;;;;0.60;0.60;;;;;;;4.68;79.48;99274.16;4925814;29;20406;-70
2023/12/23 01:35:04;;;;;;;0.52;0.47;;;;;;;4.92;79.10;99274.66;4946415;29;21146;-69
2023/12/23 01:37:29;;;;;;;0.35;0.35;;;;;;;5.15;78.09;99280.81;4947241;28;20062;-70
2023/12/23 01:39:55;;;;;;;0.52;0.52;;;;;;;5.06;77.23;99282.16;4954240;28;20063;-69
2023/12/23 01:42:20;;;;;;;0.40;0.40;;;;;;;5.03;77.79;99285.53;4945638;28;20058;-70
2023/12/23 01:44:46;;;;;;;0.20;0.20;;;;;;;5.15;77.12;99288.81;4944957;29;20514;-70
2023/12/23 01:47:12;;;;;;;0.30;0.30;;;;;;;4.95;77.78;99291.84;4938068;29;20039;-69
2023/12/23 01:49:40;;;;;;;0.43;0.43;;;;;;;5.15;77.98;99294.16;4943889;28;20519;-70
2023/12/23 01:52:05;;;;;;;0.28;0.25;;;;;;;5.23;77.21;99301.16;4943523;28;20045;-70
2023/12/23 01:54:31;;;;;;;0.40;0.40;;;;;;;5.22;78.00;99298.88;4942391;29;20039;-69
2023/12/23 01:56:58;;;;;;;0.20;0.20;;;;;;;5.28;77.79;99281.44;4943420;29;20090;-70
2023/12/23 01:59:23;;;;;;;5.47;0.43;;;;;;;5.44;76.78;99287.44;4942702;29;20043;-70
2023/12/23 02:01:50;;;;;;;1.95;0.40;;;;;;;5.27;77.60;99298.56;4948401;28;20035;-70
2023/12/23 02:04:15;;;;;;;0.30;0.30;;;;;;;5.14;78.22;99302.50;4949247;29;20043;-69
2023/12/23 02:06:41;;;;;;;5.45;0.80;;;;;;;5.30;78.65;99284.53;4945304;29;20034;-70
2023/12/23 02:09:06;;;;;;;0.30;0.30;;;;;;;5.20;78.72;99283.22;4943962;28;20035;-69
2023/12/23 02:11:47;;;;;;;1.20;0.77;;;;;;;5.31;79.77;99276.16;4941973;28;20035;-69
2023/12/23 02:14:22;;;;;;;0.73;0.43;;;;;;;5.27;80.01;99280.66;4920659;29;20045;-70
2023/12/23 02:16:49;;;;;;;1.75;0.73;;;;;;;5.42;79.44;99292.38;4939771;29;20202;-70
2023/12/23 02:19:14;;;;;;;0.55;0.50;;;;;;;5.40;80.11;99279.38;4947013;29;20035;-68
2023/12/23 02:21:39;;;;;;;0.30;0.30;;;;;;;5.33;80.23;99284.59;4945610;29;20046;-70
2023/12/23 02:24:05;;;;;;;1.52;0.60;;;;;;;5.46;79.44;99277.19;4948919;29;20038;-69
2023/12/23 02:26:33;;;;;;;0.85;0.40;;;;;;;5.32;81.32;99274.28;4948535;28;20042;-70
2023/12/23 02:29:01;;;;;;;0.40;0.32;;;;;;;5.49;80.62;99274.59;4963359;28;20031;-70
2023/12/23 02:31:27;;;;;;;0.30;0.30;;;;;;;5.60;80.52;99271.31;4943089;28;20039;-70
2023/12/23 02:33:53;;;;;;;1.50;0.45;;;;;;;5.49;81.50;99271.16;4942970;29;20050;-69
2023/12/23 02:36:22;;;;;;;11.40;0.55;;;;;;;5.63;81.31;99274.06;4947607;28;20042;-70
2023/12/23 02:38:48;;;;;;;0.40;0.40;;;;;;;5.45;81.84;99273.78;4937747;29;20129;-70
2023/12/23 02:41:14;;;;;;;1.00;0.50;;;;;;;5.16;83.16;99284.25;4941530;28;20114;-70
2023/12/23 02:43:40;;;;;;;1.50;1.40;;;;;;;5.31;84.02;99281.50;4947101;28;20042;-70
2023/12/23 02:46:05;;;;;;;0.68;0.35;;;;;;;5.36;84.61;99283.13;4942389;28;20548;-70
2023/12/23 02:48:30;;;;;;;0.60;0.60;;;;;;;5.36;84.36;99267.88;4941776;28;20039;-69
2023/12/23 02:50:57;;;;;;;0.30;0.30;;;;;;;5.54;83.99;99273.53;4937229;29;20039;-69
2023/12/23 02:53:23;;;;;;;3.90;0.85;;;;;;;5.52;83.58;99283.78;4944755;29;20038;-70
2023/12/23 02:55:49;;;;;;;0.50;0.45;;;;;;;5.14;85.63;99279.28;4948865;29;20046;-70
2023/12/23 02:58:14;;;;;;;0.35;0.35;;;;;;;5.61;84.44;99273.66;4955331;28;20968;-70
2023/12/23 03:00:40;;;;;;;2.05;0.75;;;;;;;5.59;83.70;99259.91;4963320;28;20032;-69
2023/12/23 03:03:05;;;;;;;7.68;0.63;;;;;;;5.53;84.34;99281.91;4944704;29;20042;-69
2023/12/23 03:05:31;;;;;;;1.92;0.57;;;;;;;5.62;84.82;99280.53;4942763;28;20041;-69
2023/12/23 03:07:56;;;;;;;0.32;0.32;;;;;;;5.60;85.39;99272.09;4943249;29;20035;-69
2023/12/23 03:10:21;;;;;;;0.70;0.40;;;;;;;5.29;87.33;99274.97;4927306;29;20043;-69
2023/12/23 03:12:47;;;;;;;0.95;0.95;;;;;;;5.39;87.62;99283.19;4943484;28;20043;-70
2023/12/23 03:15:12;;;;;;;0.22;0.22;;;;;;;5.39;87.92;99277.84;4944654;29;20034;-69
2023/12/23 03:17:38;;;;;;;2.25;0.40;;;;;;;5.49;87.82;99292.50;4943393;29;20024;-69
2023/12/23 03:20:04;;;;;;;0.30;0.30;;;;;;;5.53;87.60;99292.56;4941179;29;20145;-69
2023/12/23 03:22:31;;;;;;;1.05;0.60;;;;;;;5.55;88.04;99306.34;4937679;29;20502;-69
2023/12/23 03:24:56;;;;;;;0.50;0.50;;;;;;;5.40;88.43;99300.72;4941780;28;20157;-69
2023/12/23 03:27:22;;;;;;;1.25;0.88;;;;;;;5.53;88.60;99308.59;4943435;29;20122;-70
2023/12/23 03:29:47;;;;;;;0.47;0.47;;;;;;;5.82;87.65;99313.31;4941772;29;20573;-69
2023/12/23 03:32:15;;;;;;;9.45;0.70;;;;;;;5.87;86.35;99308.47;4920535;29;20085;-69
2023/12/23 03:34:41;;;;;;;0.32;0.30;;;;;;;5.89;86.81;99311.56;4953263;28;20024;-70
2023/12/23 03:37:06;;;;;;;0.20;0.20;;;;;;;5.86;86.23;99306.16;4942550;28;20534;-69
2023/12/23 03:39:32;;;;;;;0.55;0.30;;;;;;;5.59;87.08;99307.19;4942174;29;20043;-70
2023/12/23 03:41:57;;;;;;;0.20;0.20;;;;;;;5.46;87.82;99299.31;4945462;28;20036;-70
2023/12/23 03:44:23;;;;;;;0.50;0.50;;;;;;;5.78;86.47;99291.88;4944730;29;20035;-70
2023/12/23 03:46:48;;;;;;;0.55;0.43;;;;;;;6.02;85.34;99277.41;4949652;28;20027;-70
2023/12/23 03:49:13;;;;;;;0.57;0.45;;;;;;;5.86;85.55;99292.78;4946045;29;20474;-70
2023/12/23 03:51:39;;;;;;;1.13;0.38;;;;;;;5.80;85.77;99281.63;4942266;28;20034;-69
2023/12/23 03:54:04;;;;;;;1.35;0.50;;;;;;;5.81;86.49;99288.47;4941292;29;20157;-69
2023/12/23 03:56:30;;;;;;;0.40;0.40;;;;;;;5.86;85.73;99293.56;4950032;28;20498;-69
2023/12/23 03:58:58;;;;;;;9.82;0.57;;;;;;;6.01;85.89;99294.56;4942045;28;20114;-69
2023/12/23 04:01:23;;;;;;;2.95;0.35;;;;;;;5.81;86.93;99287.72;4943468;29;20035;-70
2023/12/23 04:03:50;;;;;;;0.50;0.50;;;;;;;5.66;89.17;99299.28;4933229;29;20383;-69
2023/12/23 04:06:15;;;;;;;0.95;0.80;;;;;;;6.06;87.48;99296.94;4942380;29;20102;-69
2023/12/23 04:08:41;;;;;;;0.77;0.77;;;;;;;6.08;88.24;99297.34;4959026;28;20514;-70
2023/12/23 04:11:07;;;;;;;0.20;0.20;;;;;;;5.87;90.33;99303.13;4925273;29;20872;-70
2023/12/23 04:13:33;;;;;;;3.00;0.30;;;;;;;5.70;92.14;99298.22;4944128;29;20031;-70
2023/12/23 04:16:02;;;;;;;1.27;0.43;;;;;;;5.54;93.56;99310.91;4940910;29;20106;-70
2023/12/23 04:18:28;;;;;;;1.13;0.32;;;;;;;5.29;94.75;99305.09;4939397;29;20033;-70
2023/12/23 04:20:54;;;;;;;0.50;0.45;;;;;;;5.14;97.86;99321.19;4941297;29;20027;-69
2023/12/23 04:23:19;;;;;;;0.30;0.30;;;;;;;5.47;96.33;99306.22;4965760;28;20035;-69
2023/12/23 04:25:48;;;;;;;1.45;0.40;;;;;;;5.37;96.42;99298.78;4938073;29;20117;-70
2023/12/23 04:28:15;;;;;;;6.82;0.50;;;;;;;5.55;95.70;99312.47;4944167;29;20058;-69
2023/12/23 04:30:42;;;;;;;0.20;0.20;;;;;;;5.58;95.58;99306.41;4930305;28;20038;-70
2023/12/23 04:33:10;;;;;;;0.30;0.30;;;;;;;5.63;95.42;99298.13;4932558;29;20035;-70
2023/12/23 04:35:36;;;;;;;0.30;0.30;;;;;;;5.50;96.09;99300.16;4919480;28;20032;-69
2023/12/23 04:38:02;;;;;;;0.30;0.30;;;;;;;5.48;95.96;99305.06;4960070;28;20046;-71
2023/12/23 04:40:27;;;;;;;0.57;0.50;;;;;;;5.52;96.21;99318.47;4947156;29;20027;-69
2023/12/23 04:42:52;;;;;;;2.38;0.40;;;;;;;5.50;95.87;99324.19;4925247;29;20035;-68
2023/12/23 04:45:18;;;;;;;0.32;0.30;;;;;;;5.45;96.08;99327.16;4937168;29;20549;-68
2023/12/23 04:47:43;;;;;;;7.63;0.50;;;;;;;5.31;97.70;99324.19;4928914;29;20406;-69
2023/12/23 04:50:09;;;;;;;0.20;0.20;;;;;;;5.52;96.98;99309.72;4938314;29;20054;-68
2023/12/23 04:52:34;;;;;;;4.60;0.47;;;;;;;5.62;95.82;99320.59;4944506;28;20035;-69
2023/12/23 04:55:03;;;;;;;0.20;0.20;;;;;;;5.66;96.26;99302.72;4945822;29;20071;-68
2023/12/23 04:57:29;;;;;;;0.20;0.20;;;;;;;5.74;95.25;99299.06;4944067;29;20217;-68
2023/12/23 04:59:54;;;;;;;0.30;0.30;;;;;;;5.49;96.06;99303.97;4969660;28;20110;-68
2023/12/23 05:02:20;;;;;;;0.30;0.30;;;;;;;5.50;96.84;99302.81;4947343;28;20055;-69
2023/12/23 05:04:46;;;;;;;0.85;0.52;;;;;;;5.43;96.91;99292.03;4947240;29;20031;-68
2023/12/23 05:07:12;;;;;;;1.52;0.65;;;;;;;4.78;98.94;99292.25;4947045;29;20066;-69
2023/12/23 05:09:37;;;;;;;0.95;0.40;;;;;;;4.90;100.00;99300.09;4959776;28;20043;-68
2023/12/23 05:12:03;;;;;;;1.08;0.50;;;;;;;5.08;100.00;99296.69;4942511;29;20042;-69
2023/12/23 05:14:28;;;;;;;0.20;0.20;;;;;;;5.21;99.32;99297.31;4941825;29;20101;-69
2023/12/23 05:16:54;;;;;;;0.45;0.45;;;;;;;5.15;99.36;99299.50;4953716;28;20050;-69
2023/12/23 05:19:20;;;;;;;0.30;0.30;;;;;;;5.22;99.50;99293.53;4951868;28;20050;-69
2023/12/23 05:21:46;;;;;;;0.75;0.75;;;;;;;5.37;98.54;99298.78;4946337;29;20126;-69
2023/12/23 05:24:11;;;;;;;2.78;0.22;;;;;;;5.42;97.90;99303.03;4945304;29;21959;-69
2023/12/23 05:26:36;;;;;;;0.38;0.38;;;;;;;4.99;99.89;99304.16;4951170;28;20485;-69
2023/12/23 05:29:02;;;;;;;2.63;0.43;;;;;;;5.12;99.61;99294.88;4943291;28;20050;-69
2023/12/23 05:31:28;;;;;;;0.30;0.30;;;;;;;5.17;100.00;99291.91;4948679;28;20038;-68
2023/12/23 05:33:55;;;;;;;0.30;0.30;;;;;;;5.11;100.00;99284.56;4928631;29;20502;-68
2023/12/23 05:36:22;;;;;;;0.30;0.30;;;;;;;5.07;100.00;99291.72;4959954;28;20043;-68
2023/12/23 05:38:47;;;;;;;0.63;0.40;;;;;;;5.37;100.00;99290.00;4959161;28;20054;-68
2023/12/23 05:41:13;;;;;;;0.20;0.20;;;;;;;5.44;100.00;99282.09;4936961;28;20039;-68
2023/12/23 05:43:38;;;;;;;0.20;0.20;;;;;;;5.41;100.00;99275.59;4946166;29;20118;-68
2023/12/23 05:46:04;;;;;;;0.30;0.30;;;;;;;5.37;100.00;99266.75;4947958;29;20526;-68
2023/12/23 05:48:29;;;;;;;0.65;0.60;;;;;;;5.22;100.00;99272.97;4945498;28;20036;-69
2023/12/23 05:50:54;;;;;;;2.20;0.57;;;;;;;4.96;100.00;99274.72;4978165;28;20042;-69
2023/12/23 05:53:20;;;;;;;0.68;0.68;;;;;;;4.67;100.00;99261.91;4946861;28;20055;-68
2023/12/23 05:55:46;;;;;;;0.20;0.20;;;;;;;4.85;100.00;99252.41;4948650;29;20184;-68
2023/12/23 05:58:11;;;;;;;0.32;0.32;;;;;;;4.98;100.00;99256.47;4945442;29;20054;-68
2023/12/23 06:00:37;;;;;;;0.60;0.30;;;;;;;5.12;100.00;99252.19;4943481;29;20490;-69
2023/12/23 06:03:02;;;;;;;0.50;0.50;;;;;;;5.16;100.00;99261.03;4942742;28;20043;-69
2023/12/23 06:05:28;;;;;;;0.52;0.52;;;;;;;5.05;100.00;99254.69;4943939;29;20039;-68
2023/12/23 06:07:54;;;;;;;1.40;0.60;;;;;;;5.04;100.00;99257.72;4946348;29;20035;-69
2023/12/23 06:10:19;;;;;;;2.70;0.50;;;;;;;5.09;100.00;99257.47;4946405;28;20141;-68
2023/12/23 06:12:44;;;;;;;0.20;0.20;;;;;;;5.32;100.00;99248.34;4946501;28;20118;-68
2023/12/23 06:15:10;;;;;;;0.20;0.20;;;;;;;5.36;100.00;99246.50;4927936;29;20031;-68
2023/12/23 06:17:35;;;;;;;0.65;0.40;;;;;;;5.44;100.00;99250.06;4946080;29;20609;-68
2023/12/23 06:20:01;;;;;;;0.35;0.35;;;;;;;5.45;100.00;99240.97;4950079;28;20035;-68
2023/12/23 06:22:26;;;;;;;1.25;0.43;;;;;;;5.62;100.00;99243.16;4944686;28;20039;-69
2023/12/23 06:24:52;;;;;;;0.20;0.20;;;;;;;5.78;100.00;99235.03;4945275;28;20035;-69
2023/12/23 06:27:17;;;;;;;0.20;0.20;;;;;;;5.88;99.49;99231.78;4946447;28;20093;-69
2023/12/23 06:29:42;;;;;;;0.20;0.20;;;;;;;6.03;98.47;99241.53;4957129;28;20149;-69
2023/12/23 06:32:08;;;;;;;0.60;0.60;;;;;;;6.02;98.12;99238.09;4941646;28;20035;-69
2023/12/23 06:34:34;;;;;;;0.98;0.77;;;;;;;5.96;98.52;99239.53;4942778;28;20043;-68
2023/12/23 06:36:59;;;;;;;0.60;0.40;;;;;;;6.07;97.92;99242.38;4935586;29;20043;-69
2023/12/23 06:39:25;;;;;;;1.25;0.43;;;;;;;5.98;98.06;99249.88;4943817;28;20062;-69
2023/12/23 06:41:50;;;;;;;1.33;0.35;;;;;;;6.02;98.23;99250.69;4941132;28;20040;-69
2023/12/23 06:44:15;;;;;;;0.20;0.20;;;;;;;5.95;98.69;99250.56;4946492;28;20073;-69
2023/12/23 06:46:41;;;;;;;2.42;1.05;;;;;;;5.57;99.08;99250.69;4947549;28;20090;-69
2023/12/23 06:49:06;;;;;;;0.30;0.30;;;;;;;5.66;99.15;99249.31;4947482;29;20098;-69
2023/12/23 06:51:32;;;;;;;0.28;0.28;;;;;;;5.59;99.15;99245.78;4972545;28;20058;-69
2023/12/23 06:53:57;;;;;;;0.30;0.30;;;;;;;5.53;99.64;99244.53;4950693;28;20042;-69
2023/12/23 06:56:23;;;;;;;0.30;0.30;;;;;;;5.50;99.84;99235.31;4946794;29;20051;-69
2023/12/23 06:58:48;;;;;;;0.50;0.50;;;;;;;5.66;98.88;99235.19;4944527;28;20118;-69
2023/12/23 07:01:14;;;;;;;0.40;0.40;;;;;;;5.64;98.64;99227.56;4941254;28;20063;-68
2023/12/23 07:03:42;;;;;;;3.40;0.47;;;;;;;5.63;98.66;99223.34;4943935;28;20047;-69
2023/12/23 07:06:12;;;;;;;2.28;0.40;;;;;;;5.59;98.16;99227.84;4963893;28;20422;-69
2023/12/23 07:08:37;;;;;;;0.30;0.30;;;;;;;5.58;98.47;99230.88;4944381;28;20062;-69
2023/12/23 07:11:03;;;;;;;2.53;0.60;;;;;;;5.65;97.82;99241.69;4943214;29;20066;-69
2023/12/23 07:13:29;;;;;;;0.28;0.28;;;;;;;5.58;97.21;99238.88;4944064;28;20043;-68
2023/12/23 07:15:54;;;;;;;0.30;0.30;;;;;;;5.64;97.06;99243.56;4946636;28;20070;-69
2023/12/23 07:18:20;;;;;;;0.20;0.20;;;;;;;5.67;96.10;99253.53;4950709;28;20509;-69
2023/12/23 07:20:47;;;;;;;1.23;0.40;;;;;;;5.71;95.06;99245.59;4944381;29;20039;-68
2023/12/23 07:23:13;;;;;;;0.20;0.20;;;;;;;5.72;95.76;99239.13;4944301;28;20368;-69
2023/12/23 07:25:39;;;;;;;0.30;0.30;;;;;;;5.65;94.73;99253.13;4960524;28;20031;-69
2023/12/23 07:28:05;;;;;;;1.50;0.93;;;;;;;5.64;95.20;99250.81;4938818;29;20082;-69
2023/12/23 07:30:30;;;;;;;0.30;0.30;;;;;;;5.60;94.49;99250.75;4942118;29;20486;-68
2023/12/23 07:32:56;;;;;;;0.47;0.47;;;;;;;5.65;94.85;99253.13;4943799;28;20062;-69
2023/12/23 07:35:21;;;;;;;0.82;0.47;;;;;;;5.59;94.49;99257.22;4942777;29;20437;-68
2023/12/23 07:37:47;;;;;;;0.20;0.20;;;;;;;5.64;93.69;99243.56;4935844;28;20046;-68
2023/12/23 07:40:12;;;;;;;0.80;0.52;;;;;;;5.61;93.32;99240.84;4967351;28;20051;-69
2023/12/23 07:42:38;;;;;;;0.20;0.20;;;;;;;5.61;93.32;99244.28;4942361;28;20099;-69
2023/12/23 07:45:04;;;;;;;0.30;0.30;;;;;;;5.50;92.80;99246.78;4937531;29;20050;-68
2023/12/23 07:47:30;;;;;;;0.20;0.20;;;;;;;5.46;93.47;99248.59;4944661;29;20031;-69
2023/12/23 07:49:55;;;;;;;1.10;1.10;;;;;;;5.46;93.37;99245.94;4945996;29;20031;-69
2023/12/23 07:52:21;;;;;;;0.40;0.40;;;;;;;5.42;93.38;99247.00;4946673;28;20039;-69
2023/12/23 07:54:46;;;;;;;0.47;0.43;;;;;;;5.39;94.14;99251.16;4944990;29;20023;-69
2023/12/23 07:57:12;;;;;;;0.30;0.30;;;;;;;5.38;93.21;99251.53;4976266;28;20399;-69
2023/12/23 07:59:39;;;;;;;0.25;0.25;;;;;;;5.32;93.70;99251.00;4947414;28;20417;-69
2023/12/23 08:02:05;;;;;;;0.40;0.40;;;;;;;5.32;93.73;99260.94;4934389;29;20154;-68
2023/12/23 08:04:31;;;;;;;0.40;0.40;;;;;;;5.24;93.17;99257.38;4967183;28;20122;-68
2023/12/23 08:06:57;;;;;;;0.20;0.20;;;;;;;5.15;93.92;99256.06;4937009;28;20098;-68
2023/12/23 08:09:22;;;;;;;0.32;0.32;;;;;;;5.21;93.64;99251.94;4944167;28;20031;-68
2023/12/23 08:11:48;;;;;;;0.45;0.45;;;;;;;5.10;94.62;99259.78;4963827;28;20039;-69
2023/12/23 08:14:14;;;;;;;0.57;0.57;;;;;;;5.29;94.04;99251.75;4944392;29;20028;-68
2023/12/23 08:16:39;;;;;;;0.25;0.25;;;;;;;5.30;93.39;99247.19;4977128;28;20039;-68
2023/12/23 08:19:04;;;;;;;0.20;0.20;;;;;;;5.26;93.68;99249.78;4945902;28;20035;-69
2023/12/23 08:21:30;;;;;;;0.30;0.30;;;;;;;5.20;93.36;99247.75;4953960;28;20035;-69
2023/12/23 08:23:55;;;;;;;0.50;0.45;;;;;;;5.25;93.13;99248.22;4946027;29;20058;-68
2023/12/23 08:26:21;;;;;;;0.30;0.30;;;;;;;5.18;93.23;99247.34;4969875;28;20118;-69
2023/12/23 08:28:46;;;;;;;0.50;0.50;;;;;;;5.19;93.19;99252.31;4946694;28;20127;-68
2023/12/23 08:31:12;;;;;;;0.38;0.38;;;;;;;5.07;94.13;99252.44;4952506;28;20039;-68
2023/12/23 08:33:37;;;;;;;0.47;0.43;;;;;;;5.19;93.60;99246.97;4948545;28;20491;-69
2023/12/23 08:36:03;;;;;;;0.40;0.40;;;;;;;5.22;93.47;99250.84;4950318;28;20489;-69
2023/12/23 08:38:28;;;;;;;0.40;0.40;;;;;;;5.21;93.66;99246.59;4949498;28;20050;-69
2023/12/23 08:40:53;;;;;;;0.65;0.65;;;;;;;4.97;93.27;99244.25;4977168;28;20054;-69
2023/12/23 08:43:22;;;;;;;0.32;0.32;;;;;;;5.11;94.02;99261.28;4948814;28;20675;-68
2023/12/23 08:45:48;;;;;;;0.88;0.57;;;;;;;5.19;93.49;99257.66;4948530;29;20039;-69
2023/12/23 08:48:13;;;;;;;1.65;0.65;;;;;;;5.24;93.34;99257.38;4952342;28;22084;-69
2023/12/23 08:50:38;;;;;;;0.40;0.40;;;;;;;5.26;93.20;99249.78;4932247;28;20043;-69
2023/12/23 08:53:04;;;;;;;0.90;0.70;;;;;;;5.28;92.89;99238.75;4944675;28;20067;-69
2023/12/23 08:55:29;;;;;;;0.60;0.60;;;;;;;5.23;92.69;99239.81;4935628;29;20043;-69
2023/12/23 08:57:55;;;;;;;1.17;0.80;;;;;;;5.25;93.35;99248.22;4928919;29;20447;-69
2023/12/23 09:00:20;;;;;;;5.57;0.70;;;;;;;5.17;92.84;99251.88;4943092;29;20533;-72
2023/12/23 09:02:46;;;;;;;0.60;0.60;;;;;;;5.20;93.24;99250.41;4937087;28;20074;-69
2023/12/23 09:05:11;;;;;;;1.85;1.05;;;;;;;5.23;93.37;99253.16;4959689;28;20031;-69
2023/12/23 09:07:37;;;;;;;1.08;0.70;;;;;;;5.21;92.93;99260.72;4944820;29;20062;-68
2023/12/23 09:10:07;;;;;;;4.50;0.60;;;;;;;5.25;93.01;99250.91;4951677;28;20043;-69
2023/12/23 09:12:33;;;;;;;0.50;0.50;;;;;;;5.28;92.45;99260.84;4945473;29;20069;-69
2023/12/23 09:14:59;;;;;;;1.98;0.88;;;;;;;5.29;92.93;99266.97;4947858;29;20094;-69
2023/12/23 09:17:24;;;;;;;0.90;0.90;;;;;;;5.23;92.43;99263.03;4947724;29;20066;-69
2023/12/23 09:19:50;;;;;;;2.90;0.98;;;;;;;5.21;92.53;99262.63;4934954;28;20475;-69
2023/12/23 09:22:15;;;;;;;0.70;0.70;;;;;;;5.25;93.30;99266.91;4940043;28;20544;-68
2023/12/23 09:24:43;;;;;;;0.77;0.77;;;;;;;5.22;93.20;99254.28;4940137;28;20042;-69
2023/12/23 09:27:09;;;;;;;0.60;0.57;;;;;;;5.31;92.28;99260.16;4948583;28;20038;-69
2023/12/23 09:29:34;;;;;;;0.60;0.60;;;;;;;5.22;92.47;99262.28;4945181;28;20039;-68
2023/12/23 09:32:00;;;;;;;1.58;0.95;;;;;;;5.23;93.23;99266.50;4929336;29;20528;-68
2023/12/23 09:34:26;;;;;;;1.95;0.70;;;;;;;5.21;93.07;99260.72;4927833;28;20471;-69
2023/12/23 09:36:51;;;;;;;0.47;0.47;;;;;;;5.20;92.80;99264.53;4939097;29;20027;-69
2023/12/23 09:39:17;;;;;;;1.48;0.93;;;;;;;5.28;92.42;99263.50;4918311;29;20434;-68
2023/12/23 09:41:44;;;;;;;0.75;0.60;;;;;;;5.27;92.93;99253.97;4940147;29;20035;-69
2023/12/23 09:44:09;;;;;;;1.30;0.70;;;;;;;5.28;92.57;99258.19;4942057;28;20391;-68
2023/12/23 09:46:38;;;;;;;1.02;0.90;;;;;;;5.22;93.05;99270.28;4940456;29;20027;-68
2023/12/23 09:49:03;;;;;;;1.30;1.20;;;;;;;5.20;93.43;99266.44;4968895;28;20050;-69
2023/12/23 09:51:31;;;;;;;0.93;0.93;;;;;;;5.27;92.42;99272.66;4948486;28;20744;-69
2023/12/23 09:54:00;;;;;;;0.50;0.50;;;;;;;5.21;92.64;99267.97;4942090;29;20388;-69
2023/12/23 09:56:29;;;;;;;1.45;1.20;;;;;;;5.29;92.44;99273.09;4944493;29;20106;-69
2023/12/23 09:58:56;;;;;;;1.05;1.05;;;;;;;5.16;92.62;99258.34;4941055;29;20715;-69
2023/12/23 10:01:21;;;;;;;2.10;1.67;;;;;;;5.22;93.42;99266.84;4935419;29;20054;-69
2023/12/23 10:03:47;;;;;;;1.20;1.00;;;;;;;5.21;93.40;99255.41;4942830;28;20438;-69
2023/12/23 10:06:13;;;;;;;2.58;0.90;;;;;;;5.14;93.45;99260.59;4944615;29;20035;-69
2023/12/23 10:08:39;;;;;;;2.25;1.02;;;;;;;5.20;93.82;99261.88;4934762;29;20047;-69
2023/12/23 10:11:05;;;;;;;2.55;1.40;;;;;;;5.19;94.10;99262.97;4941931;29;20580;-69
2023/12/23 10:13:30;;;;;;;1.88;1.20;;;;;;;5.33;93.24;99268.59;4936253;28;20039;-68
2023/12/23 10:15:56;;;;;;;1.45;1.35;;;;;;;5.28;93.68;99262.78;4943174;28;20031;-68
2023/12/23 10:18:21;;;;;;;1.35;1.27;;;;;;;5.29;93.48;99269.63;4941932;28;20132;-69
2023/12/23 10:20:47;;;;;;;2.13;1.55;;;;;;;5.24;93.96;99269.94;4965593;28;20126;-70
2023/12/23 10:23:13;;;;;;;1.90;1.40;;;;;;;5.40;93.70;99268.69;4925890;29;20034;-69
2023/12/23 10:25:38;;;;;;;0.90;0.90;;;;;;;5.36;92.75;99267.13;4940025;29;20097;-69
2023/12/23 10:28:07;;;;;;;1.30;1.20;;;;;;;5.35;93.06;99262.88;4943331;28;20090;-69
2023/12/23 10:30:34;;;;;;;2.50;1.20;;;;;;;5.41;93.67;99272.16;4954269;28;20689;-69
2023/12/23 10:33:05;;;;;;;0.93;0.93;;;;;;;5.40;93.63;99260.69;4939439;28;20039;-69
2023/12/23 10:35:37;;;;;;;0.82;0.82;;;;;;;5.33;93.12;99273.16;4940253;28;20054;-70
2023/12/23 10:38:08;;;;;;;0.65;0.65;;;;;;;5.38;92.58;99275.53;4935764;28;20039;-69
2023/12/23 10:40:34;;;;;;;0.93;0.93;;;;;;;5.32;93.77;99266.28;4935885;28;20486;-69
2023/12/23 10:43:01;;;;;;;0.77;0.77;;;;;;;5.37;93.20;99265.97;4936777;29;20113;-69
2023/12/23 10:45:27;;;;;;;1.80;1.27;;;;;;;5.24;94.58;99270.72;4939174;29;20399;-69
2023/12/23 10:47:53;;;;;;;1.88;1.30;;;;;;;5.35;94.03;99274.34;4933410;28;20053;-69
2023/12/23 10:50:18;;;;;;;5.18;1.20;;;;;;;5.41;93.58;99270.25;4941976;29;20050;-69
2023/12/23 10:52:45;;;;;;;1.42;1.33;;;;;;;5.45;94.27;99267.66;4942705;28;20030;-70
2023/12/23 10:55:12;;;;;;;1.23;0.90;;;;;;;5.48;93.81;99265.03;4930262;28;20039;-70
2023/12/23 10:57:40;;;;;;;1.73;1.17;;;;;;;5.49;93.49;99263.94;4946059;28;20098;-70
2023/12/23 11:00:07;;;;;;;0.90;0.70;;;;;;;5.58;93.90;99255.66;4941735;29;20044;-70
2023/12/23 11:02:35;;;;;;;1.58;0.65;;;;;;;5.53;93.89;99256.72;4952620;28;20042;-70
2023/12/23 11:05:07;;;;;;;2.20;1.10;;;;;;;5.62;94.06;99259.16;4932553;29;20027;-70
2023/12/23 11:07:44;;;;;;;0.40;0.40;;;;;;;5.69;93.90;99255.88;4945165;28;20093;-70
2023/12/23 11:10:11;;;;;;;1.70;1.10;;;;;;;5.69;94.09;99269.22;4938114;28;20035;-70
2023/12/23 11:12:39;;;;;;;1.85;1.05;;;;;;;5.68;94.57;99268.44;4937875;28;20042;-70
2023/12/23 11:15:05;;;;;;;1.85;0.88;;;;;;;5.65;94.45;99265.72;4935580;29;20078;-70
2023/12/23 11:17:31;;;;;;;1.23;0.88;;;;;;;5.70;94.93;99271.53;4934332;28;20049;-70
2023/12/23 11:20:05;;;;;;;0.85;0.73;;;;;;;5.78;95.07;99267.06;4961489;28;20039;-70
2023/12/23 11:22:38;;;;;;;0.47;0.47;;;;;;;5.81;94.66;99272.47;4936126;28;20051;-69
2023/12/23 11:25:24;;;;;;;0.70;0.55;;;;;;;5.83;94.59;99269.44;4936351;29;20399;-69
2023/12/23 11:27:50;;;;;;;0.55;0.55;;;;;;;5.79;94.25;99282.72;4938039;29;20529;-70
2023/12/23 11:30:15;;;;;;;0.95;0.80;;;;;;;5.72;94.34;99279.94;4937525;29;20118;-70
2023/12/23 11:32:43;;;;;;;2.85;0.80;;;;;;;5.76;94.99;99274.66;4935711;29;20601;-69
2023/12/23 11:35:12;;;;;;;1.85;1.58;;;;;;;5.69;95.06;99275.31;4939332;29;20097;-70